createdAt,value
2023-04-21T00:01:59.139Z,96756.00
2023-04-21T00:04:25.960Z,96755.41
2023-04-21T00:06:53.650Z,96759.28
2023-04-21T00:09:21.274Z,96753.31
2023-04-21T00:11:47.962Z,96750.91
2023-04-21T00:14:14.529Z,96755.53
2023-04-21T00:16:41.305Z,96756.72
2023-04-21T00:19:08.678Z,96759.69
2023-04-21T00:21:36.257Z,96766.16
2023-04-21T00:24:03.142Z,96755.72
2023-04-21T00:26:29.749Z,96759.34
2023-04-21T00:28:56.306Z,96745.59
2023-04-21T00:31:22.910Z,96751.09
2023-04-21T00:33:49.463Z,96743.44
2023-04-21T00:36:16.062Z,96745.44
2023-04-21T00:38:43.091Z,96752.78
2023-04-21T00:41:09.637Z,96737.25
2023-04-21T00:43:36.703Z,96740.03
2023-04-21T00:46:04.578Z,96737.44
2023-04-21T00:48:31.200Z,96733.44
2023-04-21T00:50:57.875Z,96733.63
2023-04-21T00:53:24.473Z,96729.50
2023-04-21T00:55:51.616Z,96729.69
2023-04-21T00:58:18.157Z,96737.59
2023-04-21T01:00:44.757Z,96736.00
2023-04-21T01:03:11.607Z,96735.31
2023-04-21T01:05:38.824Z,96731.84
2023-04-21T01:08:10.342Z,96729.50
2023-04-21T01:10:36.940Z,96736.63
2023-04-21T01:13:03.410Z,96740.25
2023-04-21T01:15:31.325Z,96739.50
2023-04-21T01:17:58.336Z,96729.28
2023-04-21T01:20:24.998Z,96727.78
2023-04-21T01:22:51.683Z,96733.91
2023-04-21T01:25:18.844Z,96725.44
2023-04-21T01:27:45.464Z,96732.78
2023-04-21T01:30:12.165Z,96728.75
2023-04-21T01:32:38.902Z,96728.22
2023-04-21T01:35:06.617Z,96732.84
2023-04-21T01:37:34.066Z,96731.13
2023-04-21T01:40:04.964Z,96725.00
2023-04-21T01:42:32.948Z,96724.22
2023-04-21T01:45:00.052Z,96722.69
2023-04-21T01:47:27.031Z,96724.66
2023-04-21T01:49:53.717Z,96723.88
2023-04-21T01:52:20.957Z,96729.16
2023-04-21T01:54:47.584Z,96727.47
2023-04-21T01:57:14.320Z,96722.34
2023-04-21T01:59:40.944Z,96725.78
2023-04-21T02:02:07.815Z,96725.94
2023-04-21T02:04:52.723Z,96721.47
2023-04-21T02:07:19.250Z,96725.56
2023-04-21T02:09:46.174Z,96726.25
2023-04-21T02:12:17.990Z,96712.28
2023-04-21T02:14:46.174Z,96718.44
2023-04-21T02:17:13.400Z,96717.41
2023-04-21T02:19:40.153Z,96728.38
2023-04-21T02:22:12.950Z,96726.34
2023-04-21T02:24:39.929Z,96720.09
2023-04-21T02:27:06.482Z,96723.53
2023-04-21T02:29:33.007Z,96720.00
2023-04-21T02:32:10.822Z,96715.53
2023-04-21T02:34:44.632Z,96713.09
2023-04-21T02:37:14.210Z,96718.13
2023-04-21T02:39:41.064Z,96718.75
2023-04-21T02:42:07.576Z,96721.94
2023-04-21T02:44:34.160Z,96722.72
2023-04-21T02:47:01.085Z,96723.34
2023-04-21T02:49:27.722Z,96724.94
2023-04-21T02:51:55.182Z,96734.19
2023-04-21T02:54:21.722Z,96727.06
2023-04-21T02:57:04.619Z,96725.38
2023-04-21T03:03:51.445Z,96723.66
2023-04-21T03:07:23.913Z,96724.44
2023-04-21T03:09:50.845Z,96734.53
2023-04-21T03:12:29.991Z,96730.78
2023-04-21T03:14:56.871Z,96734.13
2023-04-21T03:17:23.493Z,96736.66
2023-04-21T03:19:50.019Z,96735.50
2023-04-21T03:22:16.533Z,96734.41
2023-04-21T03:24:43.155Z,96728.91
2023-04-21T03:27:11.036Z,96732.13
2023-04-21T03:29:37.841Z,96732.88
2023-04-21T03:32:04.526Z,96730.88
2023-04-21T03:34:31.050Z,96734.13
2023-04-21T03:36:57.604Z,96739.31
2023-04-21T03:39:24.631Z,96728.91
2023-04-21T03:41:51.423Z,96719.31
2023-04-21T03:44:17.946Z,96731.47
2023-04-21T03:46:44.520Z,96728.84
2023-04-21T03:49:13.860Z,96728.16
2023-04-21T03:51:44.782Z,96726.47
2023-04-21T03:54:11.375Z,96724.03
2023-04-21T03:56:37.953Z,96731.78
2023-04-21T03:59:04.736Z,96727.31
2023-04-21T04:01:31.204Z,96736.94
2023-04-21T04:03:57.876Z,96740.38
2023-04-21T04:06:24.688Z,96736.00
2023-04-21T04:08:51.270Z,96737.69
2023-04-21T04:11:17.803Z,96735.91
2023-04-21T04:13:44.475Z,96736.84
2023-04-21T04:16:11.046Z,96746.38
2023-04-21T04:18:37.664Z,96750.41
2023-04-21T04:21:09.509Z,96752.09
2023-04-21T04:23:36.593Z,96753.69
2023-04-21T04:26:05.538Z,96749.97
2023-04-21T04:28:32.176Z,96749.81
2023-04-21T04:31:00.772Z,96750.34
2023-04-21T04:33:27.414Z,96744.06
2023-04-21T04:35:54.639Z,96742.31
2023-04-21T04:38:22.954Z,96736.91
2023-04-21T04:40:57.726Z,96742.91
2023-04-21T04:43:25.424Z,96747.03
2023-04-21T04:45:52.041Z,96755.44
2023-04-21T04:48:18.691Z,96752.66
2023-04-21T04:50:48.960Z,96744.56
2023-04-21T04:53:15.879Z,96740.94
2023-04-21T04:55:42.370Z,96740.56
2023-04-21T04:58:08.927Z,96748.16
2023-04-21T05:00:36.993Z,96743.59
2023-04-21T05:03:03.682Z,96736.03
2023-04-21T05:05:30.666Z,96739.91
2023-04-21T05:07:57.422Z,96737.00
2023-04-21T05:10:24.090Z,96741.13
2023-04-21T05:12:50.604Z,96736.47
2023-04-21T05:15:17.917Z,96740.59
2023-04-21T05:17:44.482Z,96742.19
2023-04-21T05:20:11.466Z,96748.13
2023-04-21T05:22:39.027Z,96750.63
2023-04-21T05:25:12.156Z,96746.31
2023-04-21T05:38:27.340Z,96754.97
2023-04-21T05:40:56.700Z,96742.25
2023-04-21T05:43:23.290Z,96747.59
2023-04-21T05:45:49.940Z,96751.59
2023-04-21T05:48:16.605Z,96760.19
2023-04-21T05:50:43.266Z,96753.25
2023-04-21T05:53:09.937Z,96750.38
2023-04-21T05:55:37.071Z,96751.28
2023-04-21T05:58:04.210Z,96746.41
2023-04-21T06:03:38.429Z,96743.25
2023-04-21T06:06:06.464Z,96737.38
2023-04-21T06:08:33.392Z,96736.66
2023-04-21T06:10:59.908Z,96733.50
2023-04-21T06:13:27.784Z,96741.03
2023-04-21T06:15:55.111Z,96738.88
2023-04-21T06:18:22.177Z,96733.66
2023-04-21T06:20:53.118Z,96737.22
2023-04-21T06:23:19.935Z,96743.28
2023-04-21T06:25:46.608Z,96736.09
2023-04-21T06:28:13.365Z,96736.28
2023-04-21T06:30:39.986Z,96740.78
2023-04-21T06:33:06.878Z,96741.25
2023-04-21T06:35:33.523Z,96743.66
2023-04-21T06:38:00.035Z,96743.38
2023-04-21T06:40:26.572Z,96741.22
2023-04-21T06:42:53.074Z,96742.84
2023-04-21T06:45:19.751Z,96733.59
2023-04-21T06:47:46.876Z,96734.41
2023-04-21T06:50:13.410Z,96729.25
2023-04-21T06:52:39.916Z,96734.13
2023-04-21T06:55:06.930Z,96732.22
2023-04-21T06:57:33.482Z,96721.91
2023-04-21T07:00:00.105Z,96726.81
2023-04-21T07:02:26.692Z,96730.06
2023-04-21T07:04:53.316Z,96731.56
2023-04-21T07:07:19.902Z,96724.66
2023-04-21T07:09:48.206Z,96720.84
2023-04-21T07:12:14.692Z,96724.47
2023-04-21T07:14:41.424Z,96725.09
2023-04-21T07:17:08.030Z,96719.81
2023-04-21T07:19:34.732Z,96729.34
2023-04-21T07:22:01.240Z,96725.94
2023-04-21T07:24:28.622Z,96727.66
2023-04-21T07:26:55.122Z,96722.91
2023-04-21T07:29:21.813Z,96721.84
2023-04-21T07:31:48.383Z,96722.41
2023-04-21T07:34:15.391Z,96718.53
2023-04-21T07:36:41.943Z,96710.81
2023-04-21T07:39:08.487Z,96724.38
2023-04-21T07:41:34.953Z,96714.34
2023-04-21T07:44:01.500Z,96709.50
2023-04-21T07:46:31.609Z,96707.94
2023-04-21T07:49:00.955Z,96710.44
2023-04-21T07:51:29.646Z,96708.19
2023-04-21T07:53:56.328Z,96708.56
2023-04-21T07:56:23.037Z,96705.50
2023-04-21T07:58:49.831Z,96708.66
2023-04-21T08:01:16.305Z,96697.00
2023-04-21T08:03:43.048Z,96697.97
2023-04-21T08:06:09.859Z,96695.22
2023-04-21T08:08:36.770Z,96698.44
2023-04-21T08:11:03.293Z,96695.28
2023-04-21T08:13:29.857Z,96692.75
2023-04-21T08:15:56.516Z,96688.69
2023-04-21T08:18:23.667Z,96684.44
2023-04-21T08:20:50.394Z,96687.16
2023-04-21T08:23:17.051Z,96685.78
2023-04-21T08:25:43.686Z,96686.81
2023-04-21T08:28:10.221Z,96694.91
2023-04-21T08:30:36.790Z,96690.44
2023-04-21T08:33:03.502Z,96684.41
2023-04-21T08:35:30.360Z,96683.63
2023-04-21T08:37:56.896Z,96685.03
2023-04-21T08:40:33.972Z,96685.44
2023-04-21T08:43:00.669Z,96686.84
2023-04-21T08:45:28.272Z,96690.63
2023-04-21T08:47:56.103Z,96684.16
2023-04-21T08:50:27.041Z,96686.19
2023-04-21T08:52:54.809Z,96674.41
2023-04-21T08:55:26.392Z,96684.44
2023-04-21T08:57:53.150Z,96673.13
2023-04-21T09:00:20.017Z,96670.88
2023-04-21T09:03:01.468Z,96677.34
2023-04-21T09:05:30.880Z,96674.69
2023-04-21T09:08:16.565Z,96672.91
2023-04-21T09:10:48.291Z,96669.22
2023-04-21T09:13:15.911Z,96671.16
2023-04-21T09:15:50.883Z,96662.81
2023-04-21T09:18:19.875Z,96666.41
2023-04-21T09:20:47.124Z,96671.72
2023-04-21T09:23:13.832Z,96670.06
2023-04-21T09:25:41.978Z,96663.56
2023-04-21T09:28:13.904Z,96659.47
2023-04-21T09:30:42.480Z,96659.31
2023-04-21T09:33:27.799Z,96659.31
2023-04-21T09:36:01.195Z,96658.72
2023-04-21T09:38:27.701Z,96653.44
2023-04-21T09:40:58.918Z,96653.00
2023-04-21T09:43:26.079Z,96657.66
2023-04-21T09:45:54.576Z,96654.00
2023-04-21T09:48:23.247Z,96653.38
2023-04-21T09:51:22.922Z,96636.91
2023-04-21T09:53:39.589Z,96646.94
2023-04-21T09:56:11.656Z,96646.09
2023-04-21T09:58:46.666Z,96639.91
2023-04-21T10:01:15.024Z,96639.00
2023-04-21T10:03:43.967Z,96632.56
2023-04-21T10:06:11.953Z,96635.28
2023-04-21T10:08:39.052Z,96621.34
2023-04-21T10:11:06.918Z,96632.06
2023-04-21T10:13:34.112Z,96636.81
2023-04-21T10:16:08.913Z,96632.94
2023-04-21T10:18:43.436Z,96621.03
2023-04-21T10:21:21.207Z,96622.63
2023-04-21T10:23:49.196Z,96631.75
2023-04-21T10:26:25.312Z,96625.50
2023-04-21T10:29:01.738Z,96616.53
2023-04-21T10:31:51.297Z,96613.00
2023-04-21T10:34:28.713Z,96623.44
2023-04-21T10:36:55.208Z,96604.56
2023-04-21T10:39:31.752Z,96621.25
2023-04-21T10:42:23.125Z,96598.59
2023-04-21T10:44:56.321Z,96611.09
2023-04-21T10:47:37.191Z,96611.44
2023-04-21T10:50:23.069Z,96598.00
2023-04-21T10:52:59.474Z,96594.97
2023-04-21T10:55:27.898Z,96585.72
2023-04-21T10:57:55.009Z,96584.34
2023-04-21T11:00:24.121Z,96588.47
2023-04-21T11:02:59.423Z,96587.34
2023-04-21T11:05:38.280Z,96597.25
2023-04-21T11:08:12.938Z,96582.59
2023-04-21T11:10:48.872Z,96586.25
2023-04-21T11:13:15.573Z,96580.78
2023-04-21T11:15:42.256Z,96578.22
2023-04-21T11:18:09.780Z,96574.81
2023-04-21T11:20:41.888Z,96574.84
2023-04-21T11:23:08.390Z,96564.75
2023-04-21T11:25:34.949Z,96575.00
2023-04-21T11:28:01.428Z,96573.13
2023-04-21T11:30:34.899Z,96570.53
2023-04-21T11:33:01.793Z,96576.22
2023-04-21T11:35:28.468Z,96580.16
2023-04-21T11:37:55.925Z,96576.50
2023-04-21T11:40:22.511Z,96580.38
2023-04-21T11:42:49.256Z,96574.31
2023-04-21T11:45:22.247Z,96578.19
2023-04-21T11:47:49.727Z,96578.63
2023-04-21T11:50:34.329Z,96571.50
2023-04-21T11:53:02.592Z,96569.88
2023-04-21T11:55:29.170Z,96555.16
2023-04-21T11:57:57.781Z,96562.72
2023-04-21T12:00:24.408Z,96555.84
2023-04-21T12:02:57.543Z,96549.06
2023-04-21T12:05:24.364Z,96550.19
2023-04-21T12:07:52.310Z,96554.47
2023-04-21T12:10:20.869Z,96554.13
2023-04-21T12:12:47.999Z,96550.31
2023-04-21T12:15:23.108Z,96552.56
2023-04-21T12:17:55.503Z,96550.03
2023-04-21T12:20:25.163Z,96545.94
2023-04-21T12:22:52.435Z,96541.09
2023-04-21T12:25:19.218Z,96551.94
2023-04-21T12:27:49.639Z,96547.56
2023-04-21T12:30:16.485Z,96545.16
2023-04-21T12:32:43.108Z,96531.00
2023-04-21T12:35:10.568Z,96540.84
2023-04-21T12:37:37.403Z,96548.25
2023-04-21T12:40:05.217Z,96537.72
2023-04-21T12:42:32.122Z,96534.59
2023-04-21T12:44:58.662Z,96529.84
2023-04-21T12:47:25.390Z,96531.03
2023-04-21T12:49:51.942Z,96530.63
2023-04-21T12:52:18.532Z,96524.94
2023-04-21T12:54:45.279Z,96529.53
2023-04-21T12:57:11.907Z,96520.31
2023-04-21T12:59:38.525Z,96524.53
2023-04-21T13:02:05.175Z,96522.09
2023-04-21T13:04:32.543Z,96512.44
2023-04-21T13:06:59.394Z,96517.28
2023-04-21T13:09:26.076Z,96511.00
2023-04-21T13:11:52.541Z,96506.59
2023-04-21T13:14:19.109Z,96512.25
2023-04-21T13:16:45.833Z,96506.34
2023-04-21T13:19:12.422Z,96510.34
2023-04-21T13:21:38.977Z,96507.16
2023-04-21T13:24:06.000Z,96510.13
2023-04-21T13:26:35.819Z,96506.53
2023-04-21T13:29:03.567Z,96504.78
2023-04-21T13:31:30.516Z,96500.41
2023-04-21T13:33:57.107Z,96499.03
2023-04-21T13:36:23.690Z,96497.38
2023-04-21T13:38:51.091Z,96491.38
2023-04-21T13:41:17.630Z,96499.84
2023-04-21T13:43:44.109Z,96492.97
2023-04-21T13:46:10.876Z,96490.13
2023-04-21T13:48:37.418Z,96510.38
2023-04-21T13:51:04.361Z,96493.66
2023-04-21T13:53:31.132Z,96492.16
2023-04-21T13:55:59.263Z,96492.75
2023-04-21T13:58:25.828Z,96492.00
2023-04-21T14:00:52.364Z,96488.13
2023-04-21T14:03:19.477Z,96488.81
2023-04-21T14:05:46.201Z,96485.59
2023-04-21T14:08:12.874Z,96483.19
2023-04-21T14:10:39.421Z,96484.72
2023-04-21T14:13:05.957Z,96466.72
2023-04-21T14:15:32.525Z,96480.69
2023-04-21T14:18:00.507Z,96477.88
2023-04-21T14:20:27.471Z,96478.00
2023-04-21T14:22:54.020Z,96464.81
2023-04-21T14:25:20.587Z,96457.94
2023-04-21T14:27:47.140Z,96461.88
2023-04-21T14:30:14.564Z,96463.78
2023-04-21T14:32:47.358Z,96455.47
2023-04-21T14:35:14.529Z,96453.44
2023-04-21T14:37:41.623Z,96458.16
2023-04-21T14:40:09.703Z,96451.16
2023-04-21T14:42:36.333Z,96455.84
2023-04-21T14:45:02.936Z,96459.81
2023-04-21T14:47:29.553Z,96450.63
2023-04-21T14:49:56.256Z,96449.50
2023-04-21T14:52:25.728Z,96450.22
2023-04-21T14:54:52.765Z,96456.88
2023-04-21T14:57:21.729Z,96460.94
2023-04-21T14:59:50.517Z,96447.97
2023-04-21T15:02:18.044Z,96444.22
2023-04-21T15:04:45.019Z,96453.59
2023-04-21T15:07:11.713Z,96453.13
2023-04-21T15:09:39.450Z,96453.56
2023-04-21T15:12:06.314Z,96462.16
2023-04-21T15:14:33.139Z,96463.78
2023-04-21T15:16:59.752Z,96450.31
2023-04-21T15:19:26.354Z,96464.38
2023-04-21T15:21:53.027Z,96456.19
2023-04-21T15:24:19.744Z,96462.72
2023-04-21T15:26:46.369Z,96462.25
2023-04-21T15:29:12.986Z,96458.63
2023-04-21T15:31:40.234Z,96457.25
2023-04-21T15:34:07.119Z,96459.22
2023-04-21T15:36:33.712Z,96463.44
2023-04-21T15:39:00.306Z,96452.19
2023-04-21T15:41:29.467Z,96456.03
2023-04-21T15:43:56.153Z,96453.84
2023-04-21T15:46:22.935Z,96452.47
2023-04-21T15:48:49.600Z,96456.25
2023-04-21T15:51:16.261Z,96452.56
2023-04-21T15:53:47.844Z,96456.91
2023-04-21T15:56:16.786Z,96454.50
2023-04-21T15:58:44.446Z,96457.38
2023-04-21T16:01:12.808Z,96451.19
2023-04-21T16:03:40.260Z,96447.41
2023-04-21T16:06:07.565Z,96444.28
2023-04-21T16:08:34.391Z,96454.66
2023-04-21T16:11:01.426Z,96453.88
2023-04-21T16:13:28.032Z,96448.59
2023-04-21T16:15:54.652Z,96447.56
2023-04-21T16:18:21.565Z,96444.91
2023-04-21T16:20:48.330Z,96449.13
2023-04-21T16:23:15.702Z,96447.47
2023-04-21T16:25:43.088Z,96447.53
2023-04-21T16:28:11.367Z,96439.22
2023-04-21T16:30:43.348Z,96436.53
2023-04-21T16:33:11.533Z,96436.88
2023-04-21T16:35:39.265Z,96435.22
2023-04-21T16:38:06.371Z,96428.75
2023-04-21T16:40:33.245Z,96436.47
2023-04-21T16:42:59.798Z,96436.81
2023-04-21T16:45:28.753Z,96427.31
2023-04-21T16:47:55.515Z,96424.66
2023-04-21T16:50:22.198Z,96425.19
2023-04-21T16:52:48.870Z,96438.69
2023-04-21T16:55:15.470Z,96429.56
2023-04-21T16:57:42.016Z,96427.91
2023-04-21T17:00:09.569Z,96427.59
2023-04-21T17:02:36.351Z,96428.94
2023-04-21T17:05:04.078Z,96432.78
2023-04-21T17:07:32.002Z,96433.50
2023-04-21T17:09:58.676Z,96432.84
2023-04-21T17:12:25.250Z,96431.72
2023-04-21T17:14:51.945Z,96439.72
2023-04-21T17:17:18.702Z,96435.91
2023-04-21T17:19:45.321Z,96431.41
2023-04-21T17:22:11.904Z,96431.28
2023-04-21T17:24:51.776Z,96433.81
2023-04-21T17:27:19.594Z,96441.84
2023-04-21T17:29:46.970Z,96440.00
2023-04-21T17:32:13.996Z,96445.53
2023-04-21T17:34:40.768Z,96447.56
2023-04-21T17:37:07.314Z,96449.38
2023-04-21T17:39:33.847Z,96452.88
2023-04-21T17:42:02.729Z,96442.41
2023-04-21T17:44:29.510Z,96452.22
2023-04-21T17:46:56.672Z,96445.06
2023-04-21T17:49:24.779Z,96446.22
2023-04-21T17:51:52.058Z,96450.84
2023-04-21T17:54:18.647Z,96451.66
2023-04-21T17:56:48.960Z,96455.66
2023-04-21T17:59:16.480Z,96452.97
2023-04-21T18:01:43.419Z,96456.78
2023-04-21T18:04:10.232Z,96456.25
2023-04-21T18:06:37.069Z,96461.84
2023-04-21T18:09:06.636Z,96462.97
2023-04-21T18:11:33.270Z,96468.41
2023-04-21T18:14:00.014Z,96463.19
2023-04-21T18:16:26.705Z,96463.31
2023-04-21T18:18:53.560Z,96460.75
2023-04-21T18:21:20.851Z,96472.03
2023-04-21T18:23:47.428Z,96464.53
2023-04-21T18:26:14.010Z,96465.28
2023-04-21T18:28:41.775Z,96468.56
2023-04-21T18:31:08.910Z,96456.91
2023-04-21T18:33:35.519Z,96474.16
2023-04-21T18:36:02.036Z,96470.31
2023-04-21T18:38:28.513Z,96480.38
2023-04-21T18:40:56.199Z,96484.63
2023-04-21T18:43:22.793Z,96486.91
2023-04-21T18:45:49.299Z,96487.69
2023-04-21T18:48:15.828Z,96488.28
2023-04-21T18:50:42.554Z,96491.25
2023-04-21T18:53:09.345Z,96492.03
2023-04-21T18:55:37.397Z,96496.94
2023-04-21T18:58:04.286Z,96489.53
2023-04-21T19:00:32.452Z,96495.31
2023-04-21T19:03:02.654Z,96501.22
2023-04-21T19:05:31.453Z,96502.50
2023-04-21T19:07:58.301Z,96508.09
2023-04-21T19:10:24.785Z,96516.81
2023-04-21T19:12:51.417Z,96503.81
2023-04-21T19:15:18.284Z,96515.16
2023-04-21T19:17:45.405Z,96520.22
2023-04-21T19:20:12.639Z,96508.25
2023-04-21T19:22:39.272Z,96513.56
2023-04-21T19:25:07.070Z,96513.00
2023-04-21T19:27:33.658Z,96512.50
2023-04-21T19:30:01.074Z,96514.75
2023-04-21T19:32:28.263Z,96525.38
2023-04-21T19:34:54.943Z,96520.13
2023-04-21T19:37:21.490Z,96525.41
2023-04-21T19:39:48.168Z,96528.50
2023-04-21T19:42:14.762Z,96527.97
2023-04-21T19:44:41.687Z,96533.69
2023-04-21T19:47:08.259Z,96540.25
2023-04-21T19:49:35.688Z,96531.75
2023-04-21T19:52:04.958Z,96529.81
2023-04-21T19:54:32.171Z,96533.59
2023-04-21T19:56:58.706Z,96536.09
2023-04-21T19:59:25.315Z,96536.66
2023-04-21T20:01:51.930Z,96532.47
2023-04-21T20:04:18.638Z,96538.47
2023-04-21T20:06:45.819Z,96537.94
2023-04-21T20:09:12.841Z,96541.00
2023-04-21T20:11:39.476Z,96541.44
2023-04-21T20:14:07.135Z,96536.53
2023-04-21T20:16:34.352Z,96533.47
2023-04-21T20:19:01.916Z,96539.47
2023-04-21T20:21:28.839Z,96545.88
2023-04-21T20:23:55.678Z,96537.50
2023-04-21T20:26:22.948Z,96551.00
2023-04-21T20:28:49.513Z,96546.16
2023-04-21T20:31:16.591Z,96544.47
2023-04-21T20:33:43.138Z,96549.19
2023-04-21T20:36:09.653Z,96553.78
2023-04-21T20:38:36.367Z,96551.25
2023-04-21T20:41:03.340Z,96557.13
2023-04-21T20:43:33.096Z,96555.16
2023-04-21T20:46:01.176Z,96558.47
2023-04-21T20:48:27.828Z,96563.59
2023-04-21T20:50:54.569Z,96560.53
2023-04-21T20:53:21.219Z,96563.41
2023-04-21T20:55:48.215Z,96569.41
2023-04-21T20:58:14.754Z,96566.44
2023-04-21T21:00:41.507Z,96563.47
2023-04-21T21:03:10.240Z,96561.63
2023-04-21T21:05:37.856Z,96557.09
2023-04-21T21:08:05.289Z,96561.84
2023-04-21T21:10:31.798Z,96554.44
2023-04-21T21:12:59.690Z,96555.53
2023-04-21T21:15:32.630Z,96554.25
2023-04-21T21:17:59.181Z,96557.00
2023-04-21T21:20:26.049Z,96563.22
2023-04-21T21:22:52.614Z,96564.25
2023-04-21T21:25:19.194Z,96570.16
2023-04-21T21:27:46.117Z,96572.75
2023-04-21T21:30:13.070Z,96568.81
2023-04-21T21:32:39.944Z,96569.34
2023-04-21T21:35:09.357Z,96577.16
2023-04-21T21:37:36.898Z,96576.91
2023-04-21T21:40:03.671Z,96575.22
2023-04-21T21:42:30.223Z,96573.19
2023-04-21T21:44:56.760Z,96570.66
2023-04-21T21:47:23.283Z,96574.28
2023-04-21T21:49:55.641Z,96578.69
2023-04-21T21:52:22.266Z,96582.81
2023-04-21T21:54:48.813Z,96580.31
2023-04-21T21:57:15.844Z,96581.28
2023-04-21T21:59:42.505Z,96591.34
2023-04-21T22:02:09.122Z,96591.47
2023-04-21T22:04:35.954Z,96592.94
2023-04-21T22:07:03.951Z,96585.97
2023-04-21T22:09:30.901Z,96586.63
2023-04-21T22:11:57.443Z,96583.13
2023-04-21T22:14:24.347Z,96583.25
2023-04-21T22:16:53.100Z,96586.97
2023-04-21T22:19:20.260Z,96583.19
2023-04-21T22:21:46.916Z,96585.34
2023-04-21T22:24:13.600Z,96586.56
2023-04-21T22:26:40.404Z,96587.63
2023-04-21T22:29:07.054Z,96587.16
2023-04-21T22:31:33.883Z,96586.69
2023-04-21T22:34:00.680Z,96589.44
2023-04-21T22:36:27.487Z,96583.44
2023-04-21T22:38:54.025Z,96587.88
2023-04-21T22:41:21.164Z,96581.84
2023-04-21T22:43:47.822Z,96578.88
2023-04-21T22:46:14.607Z,96593.94
2023-04-21T22:48:41.372Z,96594.19
2023-04-21T22:51:07.866Z,96593.25
2023-04-21T22:53:34.516Z,96593.50
2023-04-21T22:56:01.093Z,96589.19
2023-04-21T22:58:27.618Z,96589.31
2023-04-21T23:00:54.286Z,96597.09
2023-04-21T23:03:22.002Z,96597.91
2023-04-21T23:05:48.662Z,96594.44
2023-04-21T23:08:15.166Z,96602.81
2023-04-21T23:10:41.737Z,96602.69
2023-04-21T23:13:08.287Z,96611.25
2023-04-21T23:15:34.878Z,96613.47
2023-04-21T23:18:01.454Z,96611.25
2023-04-21T23:20:28.124Z,96612.03
2023-04-21T23:22:54.698Z,96620.28
2023-04-21T23:25:21.687Z,96615.97
2023-04-21T23:27:48.249Z,96609.47
2023-04-21T23:30:16.227Z,96616.53
2023-04-21T23:32:43.688Z,96613.38
2023-04-21T23:35:11.048Z,96608.47
2023-04-21T23:37:37.621Z,96605.34
2023-04-21T23:40:08.968Z,96609.59
2023-04-21T23:42:38.512Z,96602.13
2023-04-21T23:45:06.431Z,96608.88
2023-04-21T23:47:33.379Z,96610.13
2023-04-21T23:50:00.248Z,96610.97
2023-04-21T23:52:26.999Z,96605.94
2023-04-21T23:54:53.640Z,96615.22
2023-04-21T23:57:20.162Z,96605.94
2023-04-21T23:59:48.210Z,96607.47
